WZZ3DK EDLW-LYPG
Flight info
| Callsign | WZZ3DK |
|---|---|
| Flight time | N/A |
| Altitude | 35000 |
| Route | GMH8Q GMH Q603 TESGA DCT ESATI DCT DETEV DCT DINKU M867 XERUM DCT BAVAX DCT RADIZ DCT NERRA DCT BIGLO |
| Aircraft | A321/M-SDE3FGHIRWY/LB1 |
Departure
| Time | 2026-05-01 12:32 |
|---|---|
| Airport | Dortmund Airport (EDLW) |
Arrival
| Time | N/A |
|---|---|
| Airport | Podgorica Airport / Podgorica Golubovci Airbase (LYPG) |
| Time | Latitude | Longitude | Altitude | Speed | Heading |
|---|---|---|---|---|---|
| 2026-05-01 11:53 | 51.51642 | 7.61461 | 434 ft | 0 kts | 332° |
| 2026-05-01 12:27 | 51.51679 | 7.61430 | 427 ft | 5 kts | 332° |
| 2026-05-01 12:28 | 51.51634 | 7.61201 | 423 ft | 15 kts | 240° |
| 2026-05-01 12:28 | 51.51585 | 7.61047 | 429 ft | 16 kts | 245° |
| 2026-05-01 12:28 | 51.51456 | 7.60671 | 421 ft | 16 kts | 242° |
| 2026-05-01 12:29 | 51.51435 | 7.60609 | 417 ft | 0 kts | 240° |
| 2026-05-01 12:30 | 51.51434 | 7.60608 | 417 ft | 1 kts | 240° |
| 2026-05-01 12:30 | 51.51422 | 7.60573 | 421 ft | 7 kts | 241° |
| 2026-05-01 12:31 | 51.51382 | 7.60456 | 416 ft | 17 kts | 239° |
| 2026-05-01 12:31 | 51.51370 | 7.60312 | 413 ft | 12 kts | 305° |
| 2026-05-01 12:31 | 51.51432 | 7.60243 | 410 ft | 11 kts | 330° |
| 2026-05-01 12:31 | 51.51476 | 7.60218 | 413 ft | 4 kts | 21° |
| 2026-05-01 12:32 | 51.51508 | 7.60297 | 413 ft | 18 kts | 61° |
| 2026-05-01 12:32 | 51.52130 | 7.62057 | 426 ft | 152 kts | 65° |
| 2026-05-01 12:32 | 51.52633 | 7.63561 | 1101 ft | 150 kts | 67° |
| 2026-05-01 12:33 | 51.53137 | 7.65007 | 1894 ft | 147 kts | 65° |
| 2026-05-01 12:33 | 51.53663 | 7.66456 | 2440 ft | 161 kts | 64° |
| 2026-05-01 12:33 | 51.54243 | 7.68132 | 2717 ft | 182 kts | 65° |
| 2026-05-01 12:33 | 51.54890 | 7.69986 | 2906 ft | 204 kts | 64° |
| 2026-05-01 12:34 | 51.55633 | 7.72091 | 3236 ft | 229 kts | 65° |
| 2026-05-01 12:34 | 51.56082 | 7.74598 | 3450 ft | 244 kts | 98° |
| 2026-05-01 12:34 | 51.55434 | 7.77106 | 4020 ft | 249 kts | 134° |
| 2026-05-01 12:34 | 51.54042 | 7.78751 | 4849 ft | 251 kts | 159° |
| 2026-05-01 12:35 | 51.52328 | 7.79168 | 5675 ft | 252 kts | 181° |
| 2026-05-01 12:35 | 51.50583 | 7.78720 | 6415 ft | 258 kts | 194° |
| 2026-05-01 12:35 | 51.48883 | 7.77702 | 7145 ft | 263 kts | 199° |
| 2026-05-01 12:35 | 51.47157 | 7.76649 | 7861 ft | 267 kts | 198° |
| 2026-05-01 12:36 | 51.45394 | 7.75631 | 8590 ft | 270 kts | 195° |
| 2026-05-01 12:36 | 51.43550 | 7.75093 | 9290 ft | 271 kts | 179° |
| 2026-05-01 12:36 | 51.41674 | 7.75406 | 10025 ft | 272 kts | 164° |
| 2026-05-01 12:36 | 51.39885 | 7.76367 | 10622 ft | 279 kts | 159° |
| 2026-05-01 12:37 | 51.37977 | 7.77453 | 10795 ft | 302 kts | 160° |
| 2026-05-01 12:37 | 51.35923 | 7.78614 | 10937 ft | 324 kts | 160° |
| 2026-05-01 12:37 | 51.33733 | 7.79850 | 11148 ft | 341 kts | 160° |
| 2026-05-01 12:37 | 51.31468 | 7.81123 | 11650 ft | 348 kts | 160° |
| 2026-05-01 12:38 | 51.29168 | 7.82410 | 12299 ft | 352 kts | 160° |
| 2026-05-01 12:38 | 51.26849 | 7.83707 | 12952 ft | 355 kts | 159° |
| 2026-05-01 12:38 | 51.24497 | 7.85026 | 13567 ft | 359 kts | 160° |
| 2026-05-01 12:38 | 51.22125 | 7.86357 | 14174 ft | 364 kts | 159° |
| 2026-05-01 12:39 | 51.19726 | 7.87706 | 14778 ft | 367 kts | 159° |
| 2026-05-01 12:39 | 51.17361 | 7.89136 | 15341 ft | 369 kts | 154° |
| 2026-05-01 12:39 | 51.15127 | 7.91167 | 15889 ft | 371 kts | 146° |
| 2026-05-01 12:39 | 51.12945 | 7.93409 | 16507 ft | 374 kts | 146° |
| 2026-05-01 12:40 | 51.10740 | 7.95658 | 17085 ft | 378 kts | 146° |
| 2026-05-01 12:40 | 51.08512 | 7.97923 | 17668 ft | 381 kts | 146° |
| 2026-05-01 12:40 | 51.06265 | 8.00202 | 18219 ft | 385 kts | 147° |
| 2026-05-01 12:40 | 51.04009 | 8.02492 | 18773 ft | 387 kts | 147° |
| 2026-05-01 12:41 | 51.01718 | 8.04815 | 19278 ft | 391 kts | 146° |
| 2026-05-01 12:41 | 50.99413 | 8.07149 | 19759 ft | 394 kts | 146° |
| 2026-05-01 12:41 | 50.97091 | 8.09495 | 20243 ft | 397 kts | 146° |
| 2026-05-01 12:41 | 50.94775 | 8.11832 | 20684 ft | 401 kts | 146° |
| 2026-05-01 12:42 | 50.92414 | 8.14210 | 21131 ft | 404 kts | 146° |
| 2026-05-01 12:42 | 50.90025 | 8.16614 | 21571 ft | 408 kts | 146° |
| 2026-05-01 12:42 | 50.87623 | 8.19025 | 22006 ft | 411 kts | 146° |
| 2026-05-01 12:42 | 50.85196 | 8.21453 | 22412 ft | 414 kts | 146° |
| 2026-05-01 12:43 | 50.82743 | 8.23908 | 22832 ft | 418 kts | 146° |
| 2026-05-01 12:43 | 50.80284 | 8.26370 | 23255 ft | 421 kts | 146° |
| 2026-05-01 12:43 | 50.77801 | 8.28858 | 23658 ft | 424 kts | 146° |
| 2026-05-01 12:43 | 50.75305 | 8.31360 | 24047 ft | 427 kts | 146° |
| 2026-05-01 12:44 | 50.72792 | 8.33876 | 24384 ft | 430 kts | 146° |
| 2026-05-01 12:44 | 50.70258 | 8.36402 | 24723 ft | 432 kts | 146° |
| 2026-05-01 12:44 | 50.65131 | 8.41495 | 25380 ft | 438 kts | 147° |
| 2026-05-01 12:45 | 50.59935 | 8.46649 | 26049 ft | 444 kts | 147° |
| 2026-05-01 12:45 | 50.57314 | 8.49241 | 26376 ft | 447 kts | 146° |
| 2026-05-01 12:45 | 50.54675 | 8.51852 | 26685 ft | 449 kts | 146° |
| 2026-05-01 12:46 | 50.52020 | 8.54475 | 26992 ft | 452 kts | 147° |
| 2026-05-01 12:46 | 50.49341 | 8.57114 | 27306 ft | 455 kts | 146° |
| 2026-05-01 12:46 | 50.46656 | 8.59756 | 27608 ft | 457 kts | 146° |
| 2026-05-01 12:46 | 50.44059 | 8.62645 | 27910 ft | 459 kts | 138° |
| 2026-05-01 12:47 | 50.41723 | 8.66061 | 28197 ft | 461 kts | 134° |
| 2026-05-01 12:47 | 50.39411 | 8.69570 | 28508 ft | 463 kts | 134° |
| 2026-05-01 12:47 | 50.37085 | 8.73089 | 28813 ft | 466 kts | 135° |
| 2026-05-01 12:47 | 50.34773 | 8.76573 | 29206 ft | 466 kts | 135° |
| 2026-05-01 12:48 | 50.32429 | 8.80093 | 29657 ft | 466 kts | 135° |
| 2026-05-01 12:48 | 50.30088 | 8.83601 | 30087 ft | 465 kts | 135° |
| 2026-05-01 12:48 | 50.27748 | 8.87102 | 30501 ft | 465 kts | 135° |
| 2026-05-01 12:48 | 50.25411 | 8.90595 | 30874 ft | 465 kts | 135° |
| 2026-05-01 12:49 | 50.23077 | 8.94078 | 31232 ft | 464 kts | 135° |
| 2026-05-01 12:49 | 50.20738 | 8.97565 | 31587 ft | 464 kts | 135° |
| 2026-05-01 12:49 | 50.18408 | 9.01040 | 31944 ft | 463 kts | 135° |
| 2026-05-01 12:49 | 50.16081 | 9.04510 | 32293 ft | 463 kts | 135° |
| 2026-05-01 12:50 | 50.13752 | 9.07973 | 32652 ft | 462 kts | 135° |
| 2026-05-01 12:50 | 50.11424 | 9.11429 | 32986 ft | 462 kts | 135° |
| 2026-05-01 12:50 | 50.09097 | 9.14874 | 33316 ft | 462 kts | 135° |
| 2026-05-01 12:50 | 50.06761 | 9.18328 | 33630 ft | 462 kts | 135° |
| 2026-05-01 12:51 | 50.04430 | 9.21772 | 33970 ft | 462 kts | 135° |
| 2026-05-01 12:51 | 50.02097 | 9.25215 | 34309 ft | 462 kts | 135° |
| 2026-05-01 12:51 | 49.97445 | 9.32082 | 34875 ft | 461 kts | 135° |
| 2026-05-01 12:52 | 49.95120 | 9.35506 | 35147 ft | 460 kts | 135° |
| 2026-05-01 12:52 | 49.90495 | 9.42297 | 35351 ft | 460 kts | 135° |
| 2026-05-01 12:52 | 49.88162 | 9.45711 | 35350 ft | 460 kts | 135° |